sensor_id;sensor_type;location;lat;lon;timestamp;P1;durP1;ratioP1;P2;durP2;ratioP2
77105;SDS011;66057;54.718;18.426;2023-06-22T00:00:48;8.95;;;7.13;;
77105;SDS011;66057;54.718;18.426;2023-06-22T00:03:29;11.13;;;8.10;;
77105;SDS011;66057;54.718;18.426;2023-06-22T00:08:22;8.25;;;6.97;;
77105;SDS011;66057;54.718;18.426;2023-06-22T00:10:47;9.23;;;7.13;;
77105;SDS011;66057;54.718;18.426;2023-06-22T00:13:13;9.57;;;6.97;;
77105;SDS011;66057;54.718;18.426;2023-06-22T00:18:07;9.70;;;6.47;;
77105;SDS011;66057;54.718;18.426;2023-06-22T00:20:35;11.15;;;6.68;;
77105;SDS011;66057;54.718;18.426;2023-06-22T00:23:05;9.55;;;7.35;;
77105;SDS011;66057;54.718;18.426;2023-06-22T00:25:35;11.80;;;7.80;;
77105;SDS011;66057;54.718;18.426;2023-06-22T00:28:01;11.25;;;6.85;;
77105;SDS011;66057;54.718;18.426;2023-06-22T00:32:53;9.20;;;7.32;;
77105;SDS011;66057;54.718;18.426;2023-06-22T00:35:19;11.32;;;7.18;;
77105;SDS011;66057;54.718;18.426;2023-06-22T00:37:44;9.13;;;6.68;;
77105;SDS011;66057;54.718;18.426;2023-06-22T00:40:10;13.23;;;6.78;;
77105;SDS011;66057;54.718;18.426;2023-06-22T00:42:37;13.00;;;7.00;;
77105;SDS011;66057;54.718;18.426;2023-06-22T00:45:04;11.18;;;6.80;;
77105;SDS011;66057;54.718;18.426;2023-06-22T00:47:31;13.25;;;8.05;;
77105;SDS011;66057;54.718;18.426;2023-06-22T00:49:57;11.73;;;6.95;;
77105;SDS011;66057;54.718;18.426;2023-06-22T00:52:23;15.25;;;7.95;;
77105;SDS011;66057;54.718;18.426;2023-06-22T00:54:54;11.98;;;6.95;;
77105;SDS011;66057;54.718;18.426;2023-06-22T00:57:22;12.02;;;6.82;;
77105;SDS011;66057;54.718;18.426;2023-06-22T00:59:53;10.30;;;7.38;;
77105;SDS011;66057;54.718;18.426;2023-06-22T01:02:20;11.13;;;7.72;;
77105;SDS011;66057;54.718;18.426;2023-06-22T01:04:45;17.33;;;7.85;;
77105;SDS011;66057;54.718;18.426;2023-06-22T01:13:04;8.75;;;6.57;;
77105;SDS011;66057;54.718;18.426;2023-06-22T01:15:57;11.65;;;9.07;;
77105;SDS011;66057;54.718;18.426;2023-06-22T01:18:28;16.55;;;8.07;;
77105;SDS011;66057;54.718;18.426;2023-06-22T01:20:56;11.30;;;7.65;;
77105;SDS011;66057;54.718;18.426;2023-06-22T01:23:27;11.18;;;8.13;;
77105;SDS011;66057;54.718;18.426;2023-06-22T01:28:54;10.00;;;6.93;;
77105;SDS011;66057;54.718;18.426;2023-06-22T01:31:23;15.85;;;8.55;;
77105;SDS011;66057;54.718;18.426;2023-06-22T01:33:55;11.88;;;8.32;;
77105;SDS011;66057;54.718;18.426;2023-06-22T01:36:23;11.93;;;7.55;;
77105;SDS011;66057;54.718;18.426;2023-06-22T01:38:51;13.82;;;8.70;;
77105;SDS011;66057;54.718;18.426;2023-06-22T01:41:18;15.25;;;8.60;;
77105;SDS011;66057;54.718;18.426;2023-06-22T01:43:45;13.13;;;9.05;;
77105;SDS011;66057;54.718;18.426;2023-06-22T01:46:13;13.50;;;8.77;;
77105;SDS011;66057;54.718;18.426;2023-06-22T01:48:40;14.77;;;9.75;;
77105;SDS011;66057;54.718;18.426;2023-06-22T01:51:06;12.13;;;7.75;;
77105;SDS011;66057;54.718;18.426;2023-06-22T01:53:32;14.70;;;9.43;;
77105;SDS011;66057;54.718;18.426;2023-06-22T01:55:58;14.70;;;10.15;;
77105;SDS011;66057;54.718;18.426;2023-06-22T01:58:27;14.45;;;8.23;;
77105;SDS011;66057;54.718;18.426;2023-06-22T02:01:04;15.05;;;8.27;;
77105;SDS011;66057;54.718;18.426;2023-06-22T02:03:46;12.23;;;8.77;;
77105;SDS011;66057;54.718;18.426;2023-06-22T02:06:16;14.35;;;9.35;;
77105;SDS011;66057;54.718;18.426;2023-06-22T02:08:47;12.98;;;9.52;;
77105;SDS011;66057;54.718;18.426;2023-06-22T02:11:20;14.82;;;10.30;;
77105;SDS011;66057;54.718;18.426;2023-06-22T02:13:47;17.45;;;10.55;;
77105;SDS011;66057;54.718;18.426;2023-06-22T02:16:14;17.48;;;10.40;;
77105;SDS011;66057;54.718;18.426;2023-06-22T02:18:47;14.38;;;9.20;;
77105;SDS011;66057;54.718;18.426;2023-06-22T02:21:20;16.67;;;9.55;;
77105;SDS011;66057;54.718;18.426;2023-06-22T02:23:46;14.13;;;9.73;;
77105;SDS011;66057;54.718;18.426;2023-06-22T02:26:12;16.55;;;11.18;;
77105;SDS011;66057;54.718;18.426;2023-06-22T02:28:39;17.20;;;10.88;;
77105;SDS011;66057;54.718;18.426;2023-06-22T02:31:04;16.15;;;9.50;;
77105;SDS011;66057;54.718;18.426;2023-06-22T02:33:30;15.50;;;10.82;;
77105;SDS011;66057;54.718;18.426;2023-06-22T02:35:57;19.77;;;10.77;;
77105;SDS011;66057;54.718;18.426;2023-06-22T02:38:22;15.60;;;10.38;;
77105;SDS011;66057;54.718;18.426;2023-06-22T02:40:49;13.02;;;8.60;;
77105;SDS011;66057;54.718;18.426;2023-06-22T02:43:16;15.05;;;10.18;;
77105;SDS011;66057;54.718;18.426;2023-06-22T02:45:42;15.50;;;10.77;;
77105;SDS011;66057;54.718;18.426;2023-06-22T02:48:07;15.38;;;10.10;;
77105;SDS011;66057;54.718;18.426;2023-06-22T02:50:33;15.13;;;9.32;;
77105;SDS011;66057;54.718;18.426;2023-06-22T02:52:59;17.63;;;10.48;;
77105;SDS011;66057;54.718;18.426;2023-06-22T02:55:24;16.05;;;10.80;;
77105;SDS011;66057;54.718;18.426;2023-06-22T02:57:50;10.82;;;8.85;;
77105;SDS011;66057;54.718;18.426;2023-06-22T03:00:18;16.83;;;10.02;;
77105;SDS011;66057;54.718;18.426;2023-06-22T03:02:45;14.18;;;9.57;;
77105;SDS011;66057;54.718;18.426;2023-06-22T03:05:12;15.50;;;8.95;;
77105;SDS011;66057;54.718;18.426;2023-06-22T03:07:40;14.38;;;10.55;;
77105;SDS011;66057;54.718;18.426;2023-06-22T03:10:11;17.90;;;10.07;;
77105;SDS011;66057;54.718;18.426;2023-06-22T03:12:38;17.92;;;9.40;;
77105;SDS011;66057;54.718;18.426;2023-06-22T03:15:06;16.30;;;9.18;;
77105;SDS011;66057;54.718;18.426;2023-06-22T03:17:33;16.73;;;10.07;;
77105;SDS011;66057;54.718;18.426;2023-06-22T03:20:00;14.00;;;9.10;;
77105;SDS011;66057;54.718;18.426;2023-06-22T03:22:27;13.20;;;8.25;;
77105;SDS011;66057;54.718;18.426;2023-06-22T03:24:52;13.48;;;9.07;;
77105;SDS011;66057;54.718;18.426;2023-06-22T03:27:18;14.15;;;8.35;;
77105;SDS011;66057;54.718;18.426;2023-06-22T03:29:45;13.88;;;8.35;;
77105;SDS011;66057;54.718;18.426;2023-06-22T03:32:12;12.32;;;8.10;;
77105;SDS011;66057;54.718;18.426;2023-06-22T03:34:38;17.45;;;8.45;;
77105;SDS011;66057;54.718;18.426;2023-06-22T03:37:04;10.85;;;7.15;;
77105;SDS011;66057;54.718;18.426;2023-06-22T03:39:29;12.15;;;9.70;;
77105;SDS011;66057;54.718;18.426;2023-06-22T03:41:57;12.65;;;7.75;;
77105;SDS011;66057;54.718;18.426;2023-06-22T03:44:22;10.13;;;7.45;;
77105;SDS011;66057;54.718;18.426;2023-06-22T03:46:48;12.20;;;7.40;;
77105;SDS011;66057;54.718;18.426;2023-06-22T03:49:14;11.52;;;7.22;;
77105;SDS011;66057;54.718;18.426;2023-06-22T03:51:40;11.30;;;6.95;;
77105;SDS011;66057;54.718;18.426;2023-06-22T03:54:05;11.52;;;7.10;;
77105;SDS011;66057;54.718;18.426;2023-06-22T03:56:31;11.70;;;7.18;;
77105;SDS011;66057;54.718;18.426;2023-06-22T03:58:57;8.82;;;6.38;;
77105;SDS011;66057;54.718;18.426;2023-06-22T04:01:23;12.35;;;7.43;;
77105;SDS011;66057;54.718;18.426;2023-06-22T04:03:49;11.68;;;7.28;;
77105;SDS011;66057;54.718;18.426;2023-06-22T04:06:15;8.77;;;6.22;;
77105;SDS011;66057;54.718;18.426;2023-06-22T04:08:40;14.55;;;6.75;;
77105;SDS011;66057;54.718;18.426;2023-06-22T04:11:06;10.82;;;6.32;;
77105;SDS011;66057;54.718;18.426;2023-06-22T04:13:32;10.55;;;6.32;;
77105;SDS011;66057;54.718;18.426;2023-06-22T04:15:58;11.65;;;6.05;;
77105;SDS011;66057;54.718;18.426;2023-06-22T04:18:23;10.32;;;6.05;;
77105;SDS011;66057;54.718;18.426;2023-06-22T04:20:49;9.60;;;5.53;;
77105;SDS011;66057;54.718;18.426;2023-06-22T04:23:15;11.63;;;6.20;;
77105;SDS011;66057;54.718;18.426;2023-06-22T04:25:41;10.18;;;5.28;;
77105;SDS011;66057;54.718;18.426;2023-06-22T04:28:06;7.07;;;5.05;;
77105;SDS011;66057;54.718;18.426;2023-06-22T04:30:37;10.40;;;5.40;;
77105;SDS011;66057;54.718;18.426;2023-06-22T04:33:12;9.07;;;4.93;;
77105;SDS011;66057;54.718;18.426;2023-06-22T04:35:41;10.98;;;5.22;;
77105;SDS011;66057;54.718;18.426;2023-06-22T04:38:11;6.93;;;4.22;;
77105;SDS011;66057;54.718;18.426;2023-06-22T04:40:39;6.15;;;4.07;;
77105;SDS011;66057;54.718;18.426;2023-06-22T04:43:05;8.63;;;4.32;;
77105;SDS011;66057;54.718;18.426;2023-06-22T04:45:32;5.03;;;3.13;;
77105;SDS011;66057;54.718;18.426;2023-06-22T04:47:58;9.75;;;4.22;;
77105;SDS011;66057;54.718;18.426;2023-06-22T04:50:24;5.68;;;3.85;;
77105;SDS011;66057;54.718;18.426;2023-06-22T04:52:50;4.72;;;3.40;;
77105;SDS011;66057;54.718;18.426;2023-06-22T04:57:44;4.80;;;3.25;;
77105;SDS011;66057;54.718;18.426;2023-06-22T05:00:17;4.88;;;2.55;;
77105;SDS011;66057;54.718;18.426;2023-06-22T05:02:45;4.90;;;2.60;;
77105;SDS011;66057;54.718;18.426;2023-06-22T05:05:12;4.93;;;2.95;;
77105;SDS011;66057;54.718;18.426;2023-06-22T05:07:42;6.55;;;2.83;;
77105;SDS011;66057;54.718;18.426;2023-06-22T05:10:10;6.38;;;2.67;;
77105;SDS011;66057;54.718;18.426;2023-06-22T05:12:37;9.98;;;3.30;;
77105;SDS011;66057;54.718;18.426;2023-06-22T05:15:04;5.82;;;2.80;;
77105;SDS011;66057;54.718;18.426;2023-06-22T05:17:31;3.47;;;2.45;;
77105;SDS011;66057;54.718;18.426;2023-06-22T05:19:57;6.50;;;3.47;;
77105;SDS011;66057;54.718;18.426;2023-06-22T05:22:22;6.90;;;2.30;;
77105;SDS011;66057;54.718;18.426;2023-06-22T05:24:48;7.35;;;2.58;;
77105;SDS011;66057;54.718;18.426;2023-06-22T05:27:14;6.75;;;3.17;;
77105;SDS011;66057;54.718;18.426;2023-06-22T05:29:40;4.57;;;2.33;;
77105;SDS011;66057;54.718;18.426;2023-06-22T05:32:06;4.68;;;1.80;;
77105;SDS011;66057;54.718;18.426;2023-06-22T05:36:57;3.97;;;1.63;;
77105;SDS011;66057;54.718;18.426;2023-06-22T05:39:26;3.70;;;2.13;;
77105;SDS011;66057;54.718;18.426;2023-06-22T05:41:52;4.40;;;1.48;;
77105;SDS011;66057;54.718;18.426;2023-06-22T05:44:19;4.80;;;2.10;;
77105;SDS011;66057;54.718;18.426;2023-06-22T05:46:45;4.03;;;2.38;;
77105;SDS011;66057;54.718;18.426;2023-06-22T05:49:14;3.63;;;1.73;;
77105;SDS011;66057;54.718;18.426;2023-06-22T05:51:41;2.72;;;1.60;;
77105;SDS011;66057;54.718;18.426;2023-06-22T05:54:07;3.63;;;2.20;;
77105;SDS011;66057;54.718;18.426;2023-06-22T05:56:34;9.63;;;2.60;;
77105;SDS011;66057;54.718;18.426;2023-06-22T05:59:00;5.65;;;2.22;;
77105;SDS011;66057;54.718;18.426;2023-06-22T06:01:25;4.63;;;1.98;;
77105;SDS011;66057;54.718;18.426;2023-06-22T06:03:52;6.22;;;2.38;;
77105;SDS011;66057;54.718;18.426;2023-06-22T06:06:18;7.13;;;2.67;;
77105;SDS011;66057;54.718;18.426;2023-06-22T06:08:46;3.45;;;1.55;;
77105;SDS011;66057;54.718;18.426;2023-06-22T06:11:12;4.03;;;2.03;;
77105;SDS011;66057;54.718;18.426;2023-06-22T06:13:38;3.60;;;2.55;;
77105;SDS011;66057;54.718;18.426;2023-06-22T06:16:03;3.97;;;2.05;;
77105;SDS011;66057;54.718;18.426;2023-06-22T06:18:29;3.78;;;1.92;;
77105;SDS011;66057;54.718;18.426;2023-06-22T06:20:55;2.78;;;2.05;;
77105;SDS011;66057;54.718;18.426;2023-06-22T06:23:21;6.70;;;1.92;;
77105;SDS011;66057;54.718;18.426;2023-06-22T06:25:46;5.68;;;2.10;;
77105;SDS011;66057;54.718;18.426;2023-06-22T06:28:12;5.10;;;2.17;;
77105;SDS011;66057;54.718;18.426;2023-06-22T06:30:38;6.07;;;3.05;;
77105;SDS011;66057;54.718;18.426;2023-06-22T06:33:04;3.95;;;1.98;;
77105;SDS011;66057;54.718;18.426;2023-06-22T06:35:33;3.63;;;1.77;;
77105;SDS011;66057;54.718;18.426;2023-06-22T06:37:59;2.13;;;1.80;;
77105;SDS011;66057;54.718;18.426;2023-06-22T06:40:25;5.03;;;2.10;;
77105;SDS011;66057;54.718;18.426;2023-06-22T06:42:51;4.90;;;1.70;;
77105;SDS011;66057;54.718;18.426;2023-06-22T06:47:48;3.17;;;1.55;;
77105;SDS011;66057;54.718;18.426;2023-06-22T06:50:15;7.00;;;2.50;;
77105;SDS011;66057;54.718;18.426;2023-06-22T06:55:07;4.47;;;1.85;;
77105;SDS011;66057;54.718;18.426;2023-06-22T06:57:36;4.95;;;2.42;;
77105;SDS011;66057;54.718;18.426;2023-06-22T07:00:03;4.28;;;1.73;;
77105;SDS011;66057;54.718;18.426;2023-06-22T07:02:35;7.25;;;2.65;;
77105;SDS011;66057;54.718;18.426;2023-06-22T07:05:01;2.92;;;1.52;;
77105;SDS011;66057;54.718;18.426;2023-06-22T07:07:43;5.30;;;2.08;;
77105;SDS011;66057;54.718;18.426;2023-06-22T07:10:11;7.50;;;1.70;;
77105;SDS011;66057;54.718;18.426;2023-06-22T07:12:36;4.60;;;1.63;;
77105;SDS011;66057;54.718;18.426;2023-06-22T07:15:03;4.38;;;1.75;;
77105;SDS011;66057;54.718;18.426;2023-06-22T07:17:30;5.82;;;1.52;;
77105;SDS011;66057;54.718;18.426;2023-06-22T07:19:57;8.27;;;2.10;;
77105;SDS011;66057;54.718;18.426;2023-06-22T07:22:22;3.65;;;2.17;;
77105;SDS011;66057;54.718;18.426;2023-06-22T07:24:48;3.72;;;1.67;;
77105;SDS011;66057;54.718;18.426;2023-06-22T07:27:14;3.33;;;1.75;;
77105;SDS011;66057;54.718;18.426;2023-06-22T07:29:44;4.28;;;1.52;;
77105;SDS011;66057;54.718;18.426;2023-06-22T07:32:09;6.07;;;1.80;;
77105;SDS011;66057;54.718;18.426;2023-06-22T07:34:35;4.68;;;1.70;;
77105;SDS011;66057;54.718;18.426;2023-06-22T07:37:01;4.38;;;2.05;;
77105;SDS011;66057;54.718;18.426;2023-06-22T07:39:27;3.20;;;1.98;;
77105;SDS011;66057;54.718;18.426;2023-06-22T07:41:53;2.60;;;1.75;;
77105;SDS011;66057;54.718;18.426;2023-06-22T07:44:19;2.85;;;1.58;;
77105;SDS011;66057;54.718;18.426;2023-06-22T07:46:45;3.38;;;2.08;;
77105;SDS011;66057;54.718;18.426;2023-06-22T07:49:11;4.22;;;2.13;;
77105;SDS011;66057;54.718;18.426;2023-06-22T07:51:37;3.03;;;1.60;;
77105;SDS011;66057;54.718;18.426;2023-06-22T07:54:03;4.50;;;2.08;;
77105;SDS011;66057;54.718;18.426;2023-06-22T07:56:29;3.92;;;2.20;;
77105;SDS011;66057;54.718;18.426;2023-06-22T07:58:55;5.05;;;1.95;;
77105;SDS011;66057;54.718;18.426;2023-06-22T08:01:23;4.38;;;2.30;;
77105;SDS011;66057;54.718;18.426;2023-06-22T08:03:49;4.63;;;2.03;;
77105;SDS011;66057;54.718;18.426;2023-06-22T08:06:15;2.80;;;2.15;;
77105;SDS011;66057;54.718;18.426;2023-06-22T08:08:42;5.00;;;2.17;;
77105;SDS011;66057;54.718;18.426;2023-06-22T08:11:08;2.65;;;1.63;;
77105;SDS011;66057;54.718;18.426;2023-06-22T08:13:34;4.63;;;2.00;;
77105;SDS011;66057;54.718;18.426;2023-06-22T08:16:00;5.00;;;2.35;;
77105;SDS011;66057;54.718;18.426;2023-06-22T08:18:26;4.18;;;2.40;;
77105;SDS011;66057;54.718;18.426;2023-06-22T08:20:52;4.03;;;1.90;;
77105;SDS011;66057;54.718;18.426;2023-06-22T08:23:18;6.05;;;2.30;;
77105;SDS011;66057;54.718;18.426;2023-06-22T08:25:43;5.15;;;2.35;;
77105;SDS011;66057;54.718;18.426;2023-06-22T08:28:09;4.95;;;2.13;;
77105;SDS011;66057;54.718;18.426;2023-06-22T08:30:35;6.53;;;1.73;;
77105;SDS011;66057;54.718;18.426;2023-06-22T08:33:01;3.22;;;2.20;;
77105;SDS011;66057;54.718;18.426;2023-06-22T08:35:26;4.90;;;2.10;;
77105;SDS011;66057;54.718;18.426;2023-06-22T08:37:52;5.47;;;2.17;;
77105;SDS011;66057;54.718;18.426;2023-06-22T08:40:19;3.72;;;2.22;;
77105;SDS011;66057;54.718;18.426;2023-06-22T08:42:46;3.63;;;2.45;;
77105;SDS011;66057;54.718;18.426;2023-06-22T08:45:13;2.55;;;2.15;;
77105;SDS011;66057;54.718;18.426;2023-06-22T08:47:40;6.63;;;2.40;;
77105;SDS011;66057;54.718;18.426;2023-06-22T08:50:06;7.00;;;2.42;;
77105;SDS011;66057;54.718;18.426;2023-06-22T08:52:35;4.65;;;2.10;;
77105;SDS011;66057;54.718;18.426;2023-06-22T08:55:01;4.00;;;2.20;;
77105;SDS011;66057;54.718;18.426;2023-06-22T08:57:27;4.45;;;2.28;;
77105;SDS011;66057;54.718;18.426;2023-06-22T08:59:54;4.30;;;2.20;;
77105;SDS011;66057;54.718;18.426;2023-06-22T09:02:27;3.17;;;2.22;;
77105;SDS011;66057;54.718;18.426;2023-06-22T09:04:57;5.18;;;2.17;;
77105;SDS011;66057;54.718;18.426;2023-06-22T09:07:23;4.72;;;2.30;;
77105;SDS011;66057;54.718;18.426;2023-06-22T09:09:50;4.85;;;1.75;;
77105;SDS011;66057;54.718;18.426;2023-06-22T09:12:16;6.05;;;1.88;;
77105;SDS011;66057;54.718;18.426;2023-06-22T09:14:45;5.50;;;2.20;;
77105;SDS011;66057;54.718;18.426;2023-06-22T09:19:37;5.65;;;2.20;;
77105;SDS011;66057;54.718;18.426;2023-06-22T09:22:03;4.07;;;2.30;;
77105;SDS011;66057;54.718;18.426;2023-06-22T09:24:31;4.85;;;2.25;;
77105;SDS011;66057;54.718;18.426;2023-06-22T09:26:57;8.85;;;2.47;;
77105;SDS011;66057;54.718;18.426;2023-06-22T09:29:23;1.90;;;1.25;;
77105;SDS011;66057;54.718;18.426;2023-06-22T09:34:15;8.75;;;2.20;;
77105;SDS011;66057;54.718;18.426;2023-06-22T09:36:46;6.75;;;2.53;;
77105;SDS011;66057;54.718;18.426;2023-06-22T09:39:11;3.47;;;1.60;;
77105;SDS011;66057;54.718;18.426;2023-06-22T09:41:37;3.97;;;1.80;;
77105;SDS011;66057;54.718;18.426;2023-06-22T09:44:03;3.85;;;1.80;;
77105;SDS011;66057;54.718;18.426;2023-06-22T09:46:29;5.07;;;2.25;;
77105;SDS011;66057;54.718;18.426;2023-06-22T09:48:55;4.78;;;1.75;;
77105;SDS011;66057;54.718;18.426;2023-06-22T09:51:21;7.40;;;2.10;;
77105;SDS011;66057;54.718;18.426;2023-06-22T09:53:49;7.18;;;1.50;;
77105;SDS011;66057;54.718;18.426;2023-06-22T09:56:15;4.40;;;1.98;;
77105;SDS011;66057;54.718;18.426;2023-06-22T09:58:44;3.55;;;1.30;;
77105;SDS011;66057;54.718;18.426;2023-06-22T10:01:11;5.43;;;1.80;;
77105;SDS011;66057;54.718;18.426;2023-06-22T10:03:39;1.90;;;1.38;;
77105;SDS011;66057;54.718;18.426;2023-06-22T10:06:07;3.10;;;1.52;;
77105;SDS011;66057;54.718;18.426;2023-06-22T10:08:32;3.42;;;1.50;;
77105;SDS011;66057;54.718;18.426;2023-06-22T10:13:24;4.38;;;1.83;;
77105;SDS011;66057;54.718;18.426;2023-06-22T10:15:49;4.53;;;1.80;;
77105;SDS011;66057;54.718;18.426;2023-06-22T10:18:19;2.60;;;1.63;;
77105;SDS011;66057;54.718;18.426;2023-06-22T10:20:50;3.10;;;1.67;;
77105;SDS011;66057;54.718;18.426;2023-06-22T10:23:18;2.55;;;1.55;;
77105;SDS011;66057;54.718;18.426;2023-06-22T10:25:44;4.20;;;2.00;;
77105;SDS011;66057;54.718;18.426;2023-06-22T10:30:36;5.18;;;1.58;;
77105;SDS011;66057;54.718;18.426;2023-06-22T10:33:02;2.25;;;1.00;;
77105;SDS011;66057;54.718;18.426;2023-06-22T10:35:28;2.92;;;1.38;;
77105;SDS011;66057;54.718;18.426;2023-06-22T10:37:54;6.05;;;1.67;;
77105;SDS011;66057;54.718;18.426;2023-06-22T10:40:21;1.50;;;1.15;;
77105;SDS011;66057;54.718;18.426;2023-06-22T10:42:46;4.05;;;1.20;;
77105;SDS011;66057;54.718;18.426;2023-06-22T10:45:12;3.20;;;1.30;;
77105;SDS011;66057;54.718;18.426;2023-06-22T10:47:38;3.97;;;1.65;;
77105;SDS011;66057;54.718;18.426;2023-06-22T10:50:05;2.78;;;1.15;;
77105;SDS011;66057;54.718;18.426;2023-06-22T10:52:31;5.05;;;1.90;;
77105;SDS011;66057;54.718;18.426;2023-06-22T10:54:57;1.95;;;1.40;;
77105;SDS011;66057;54.718;18.426;2023-06-22T10:57:23;5.32;;;1.63;;
77105;SDS011;66057;54.718;18.426;2023-06-22T10:59:48;2.70;;;1.38;;
77105;SDS011;66057;54.718;18.426;2023-06-22T11:02:14;3.50;;;1.17;;
77105;SDS011;66057;54.718;18.426;2023-06-22T11:04:40;3.22;;;1.23;;
77105;SDS011;66057;54.718;18.426;2023-06-22T11:07:05;1.80;;;1.10;;
77105;SDS011;66057;54.718;18.426;2023-06-22T11:09:31;1.92;;;1.27;;
77105;SDS011;66057;54.718;18.426;2023-06-22T11:11:57;1.58;;;1.02;;
77105;SDS011;66057;54.718;18.426;2023-06-22T11:14:24;2.67;;;0.90;;
77105;SDS011;66057;54.718;18.426;2023-06-22T11:16:50;3.25;;;1.08;;
77105;SDS011;66057;54.718;18.426;2023-06-22T11:19:17;3.28;;;1.13;;
77105;SDS011;66057;54.718;18.426;2023-06-22T11:21:43;2.38;;;1.00;;
77105;SDS011;66057;54.718;18.426;2023-06-22T11:26:35;2.20;;;1.25;;
77105;SDS011;66057;54.718;18.426;2023-06-22T11:29:01;4.03;;;1.40;;
77105;SDS011;66057;54.718;18.426;2023-06-22T11:31:30;2.88;;;1.23;;
77105;SDS011;66057;54.718;18.426;2023-06-22T11:33:56;2.08;;;1.10;;
77105;SDS011;66057;54.718;18.426;2023-06-22T11:36:21;2.03;;;0.82;;
77105;SDS011;66057;54.718;18.426;2023-06-22T11:38:47;1.48;;;0.77;;
77105;SDS011;66057;54.718;18.426;2023-06-22T11:41:13;3.60;;;1.05;;
77105;SDS011;66057;54.718;18.426;2023-06-22T11:43:38;1.80;;;1.17;;
77105;SDS011;66057;54.718;18.426;2023-06-22T11:46:04;2.72;;;1.27;;
77105;SDS011;66057;54.718;18.426;2023-06-22T11:48:30;1.95;;;0.90;;
77105;SDS011;66057;54.718;18.426;2023-06-22T11:53:23;4.45;;;1.60;;
77105;SDS011;66057;54.718;18.426;2023-06-22T11:55:50;1.75;;;0.90;;
77105;SDS011;66057;54.718;18.426;2023-06-22T12:00:41;1.40;;;1.02;;
77105;SDS011;66057;54.718;18.426;2023-06-22T12:05:33;1.95;;;1.00;;
77105;SDS011;66057;54.718;18.426;2023-06-22T12:10:25;2.50;;;1.13;;
77105;SDS011;66057;54.718;18.426;2023-06-22T12:12:51;2.00;;;1.30;;
77105;SDS011;66057;54.718;18.426;2023-06-22T12:17:42;1.58;;;0.88;;
77105;SDS011;66057;54.718;18.426;2023-06-22T12:20:08;2.55;;;1.00;;
77105;SDS011;66057;54.718;18.426;2023-06-22T12:22:34;1.65;;;0.90;;
77105;SDS011;66057;54.718;18.426;2023-06-22T12:27:27;3.25;;;1.38;;
77105;SDS011;66057;54.718;18.426;2023-06-22T12:32:18;5.07;;;1.10;;
77105;SDS011;66057;54.718;18.426;2023-06-22T12:37:10;1.52;;;1.08;;
77105;SDS011;66057;54.718;18.426;2023-06-22T12:39:35;2.50;;;0.93;;
77105;SDS011;66057;54.718;18.426;2023-06-22T12:42:02;2.33;;;1.30;;
77105;SDS011;66057;54.718;18.426;2023-06-22T12:46:53;2.03;;;0.90;;
77105;SDS011;66057;54.718;18.426;2023-06-22T12:51:45;1.70;;;0.90;;
77105;SDS011;66057;54.718;18.426;2023-06-22T12:56:37;1.80;;;1.13;;
77105;SDS011;66057;54.718;18.426;2023-06-22T12:59:03;6.15;;;1.48;;
77105;SDS011;66057;54.718;18.426;2023-06-22T13:01:30;2.50;;;0.90;;
77105;SDS011;66057;54.718;18.426;2023-06-22T13:03:57;2.13;;;1.27;;
77105;SDS011;66057;54.718;18.426;2023-06-22T13:06:26;2.50;;;0.98;;
77105;SDS011;66057;54.718;18.426;2023-06-22T13:08:52;2.03;;;1.00;;
77105;SDS011;66057;54.718;18.426;2023-06-22T13:11:18;1.42;;;0.80;;
77105;SDS011;66057;54.718;18.426;2023-06-22T13:13:44;1.98;;;1.10;;
77105;SDS011;66057;54.718;18.426;2023-06-22T13:16:11;1.95;;;1.13;;
77105;SDS011;66057;54.718;18.426;2023-06-22T13:18:37;2.15;;;1.13;;
77105;SDS011;66057;54.718;18.426;2023-06-22T13:21:03;2.72;;;1.10;;
77105;SDS011;66057;54.718;18.426;2023-06-22T13:23:29;2.08;;;1.20;;
77105;SDS011;66057;54.718;18.426;2023-06-22T13:25:55;2.78;;;1.10;;
77105;SDS011;66057;54.718;18.426;2023-06-22T13:30:47;1.77;;;1.00;;
77105;SDS011;66057;54.718;18.426;2023-06-22T13:35:39;3.35;;;0.95;;
77105;SDS011;66057;54.718;18.426;2023-06-22T13:38:07;3.17;;;1.20;;
77105;SDS011;66057;54.718;18.426;2023-06-22T13:40:34;2.00;;;1.10;;
77105;SDS011;66057;54.718;18.426;2023-06-22T13:43:00;1.88;;;1.10;;
77105;SDS011;66057;54.718;18.426;2023-06-22T13:45:26;1.73;;;1.00;;
77105;SDS011;66057;54.718;18.426;2023-06-22T13:47:52;4.22;;;1.10;;
77105;SDS011;66057;54.718;18.426;2023-06-22T13:50:18;3.05;;;1.50;;
77105;SDS011;66057;54.718;18.426;2023-06-22T13:52:43;2.08;;;1.02;;
77105;SDS011;66057;54.718;18.426;2023-06-22T13:55:09;2.65;;;1.27;;
77105;SDS011;66057;54.718;18.426;2023-06-22T14:00:01;2.60;;;1.10;;
77105;SDS011;66057;54.718;18.426;2023-06-22T14:02:30;2.17;;;1.38;;
77105;SDS011;66057;54.718;18.426;2023-06-22T14:04:56;2.60;;;1.13;;
77105;SDS011;66057;54.718;18.426;2023-06-22T14:07:22;2.10;;;1.10;;
77105;SDS011;66057;54.718;18.426;2023-06-22T14:09:52;1.42;;;0.93;;
77105;SDS011;66057;54.718;18.426;2023-06-22T14:12:23;5.43;;;1.25;;
77105;SDS011;66057;54.718;18.426;2023-06-22T14:14:50;1.95;;;1.13;;
77105;SDS011;66057;54.718;18.426;2023-06-22T14:17:16;3.58;;;1.35;;
77105;SDS011;66057;54.718;18.426;2023-06-22T14:19:42;1.45;;;0.80;;
77105;SDS011;66057;54.718;18.426;2023-06-22T14:22:08;2.30;;;1.23;;
77105;SDS011;66057;54.718;18.426;2023-06-22T14:24:34;1.45;;;0.75;;
77105;SDS011;66057;54.718;18.426;2023-06-22T14:27:00;2.10;;;1.20;;
77105;SDS011;66057;54.718;18.426;2023-06-22T14:29:28;2.15;;;0.90;;
77105;SDS011;66057;54.718;18.426;2023-06-22T14:31:54;1.73;;;0.82;;
77105;SDS011;66057;54.718;18.426;2023-06-22T14:36:46;2.33;;;0.75;;
77105;SDS011;66057;54.718;18.426;2023-06-22T14:41:37;4.43;;;1.17;;
77105;SDS011;66057;54.718;18.426;2023-06-22T14:46:29;2.30;;;0.75;;
77105;SDS011;66057;54.718;18.426;2023-06-22T14:48:55;1.85;;;0.95;;
77105;SDS011;66057;54.718;18.426;2023-06-22T14:51:21;1.13;;;0.60;;
77105;SDS011;66057;54.718;18.426;2023-06-22T14:56:14;2.15;;;0.95;;
77105;SDS011;66057;54.718;18.426;2023-06-22T14:58:44;2.42;;;0.93;;
77105;SDS011;66057;54.718;18.426;2023-06-22T15:01:13;4.00;;;1.13;;
77105;SDS011;66057;54.718;18.426;2023-06-22T15:03:39;2.05;;;0.90;;
77105;SDS011;66057;54.718;18.426;2023-06-22T15:06:05;2.10;;;1.00;;
77105;SDS011;66057;54.718;18.426;2023-06-22T15:08:42;2.20;;;1.10;;
77105;SDS011;66057;54.718;18.426;2023-06-22T15:11:08;3.33;;;0.88;;
77105;SDS011;66057;54.718;18.426;2023-06-22T15:13:34;2.13;;;1.00;;
77105;SDS011;66057;54.718;18.426;2023-06-22T15:16:03;3.65;;;1.33;;
77105;SDS011;66057;54.718;18.426;2023-06-22T15:18:29;2.17;;;0.82;;
77105;SDS011;66057;54.718;18.426;2023-06-22T15:20:55;1.88;;;1.05;;
77105;SDS011;66057;54.718;18.426;2023-06-22T15:23:24;1.80;;;1.15;;
77105;SDS011;66057;54.718;18.426;2023-06-22T15:25:51;1.85;;;1.13;;
77105;SDS011;66057;54.718;18.426;2023-06-22T15:28:17;2.00;;;1.20;;
77105;SDS011;66057;54.718;18.426;2023-06-22T15:30:43;2.83;;;1.30;;
77105;SDS011;66057;54.718;18.426;2023-06-22T15:33:16;2.72;;;1.40;;
77105;SDS011;66057;54.718;18.426;2023-06-22T15:35:47;2.55;;;1.10;;
77105;SDS011;66057;54.718;18.426;2023-06-22T15:38:21;3.53;;;1.58;;
77105;SDS011;66057;54.718;18.426;2023-06-22T15:40:50;4.40;;;1.48;;
77105;SDS011;66057;54.718;18.426;2023-06-22T15:43:16;2.53;;;1.10;;
77105;SDS011;66057;54.718;18.426;2023-06-22T15:45:41;1.70;;;0.75;;
77105;SDS011;66057;54.718;18.426;2023-06-22T15:48:10;2.65;;;1.20;;
77105;SDS011;66057;54.718;18.426;2023-06-22T15:50:36;2.83;;;0.85;;